createdAt,value
2022-08-20T00:02:16.599Z,100801.59
2022-08-20T00:04:45.182Z,100802.66
2022-08-20T00:07:15.176Z,100795.53
2022-08-20T00:09:44.261Z,100804.50
2022-08-20T00:12:13.841Z,100804.59
2022-08-20T00:14:42.111Z,100798.34
2022-08-20T00:17:10.204Z,100804.69
2022-08-20T00:19:38.126Z,100799.41
2022-08-20T00:22:06.528Z,100799.59
2022-08-20T00:24:35.955Z,100795.28
2022-08-20T00:27:03.905Z,100804.53
2022-08-20T00:29:31.820Z,100810.13
2022-08-20T00:31:59.737Z,100802.25
2022-08-20T00:34:27.884Z,100803.19
2022-08-20T00:36:55.752Z,100804.56
2022-08-20T00:39:23.827Z,100801.16
2022-08-20T00:41:54.423Z,100803.84
2022-08-20T00:44:23.811Z,100807.59
2022-08-20T00:46:53.232Z,100805.84
2022-08-20T00:49:24.855Z,100814.03
2022-08-20T00:51:58.942Z,100812.31
2022-08-20T00:54:31.294Z,100810.69
2022-08-20T00:57:04.521Z,100800.88
2022-08-20T00:59:35.387Z,100807.41
2022-08-20T01:02:07.547Z,100810.22
2022-08-20T01:04:36.837Z,100817.41
2022-08-20T01:07:06.679Z,100812.91
2022-08-20T01:09:58.231Z,100820.00
2022-08-20T01:12:25.671Z,100822.63
2022-08-20T01:14:54.461Z,100818.94
2022-08-20T01:17:25.425Z,100824.16
2022-08-20T01:19:58.836Z,100825.69
2022-08-20T01:22:51.075Z,100833.31
2022-08-20T01:25:29.676Z,100826.75
2022-08-20T01:28:00.131Z,100833.78
2022-08-20T01:30:29.955Z,100830.88
2022-08-20T01:32:57.968Z,100835.31
2022-08-20T01:35:26.770Z,100834.47
2022-08-20T01:37:55.008Z,100833.59
2022-08-20T01:40:40.532Z,100832.84
2022-08-20T01:43:09.989Z,100831.88
2022-08-20T01:45:40.082Z,100833.78
2022-08-20T01:48:09.621Z,100829.44
2022-08-20T01:50:42.953Z,100839.38
2022-08-20T01:53:20.151Z,100829.66
2022-08-20T01:55:48.182Z,100834.31
2022-08-20T01:58:17.501Z,100830.00
2022-08-20T02:00:45.355Z,100835.31
2022-08-20T02:03:13.337Z,100833.69
2022-08-20T02:05:41.205Z,100829.81
2022-08-20T02:08:09.086Z,100835.91
2022-08-20T02:10:37.397Z,100840.34
2022-08-20T02:13:08.203Z,100841.28
2022-08-20T02:15:39.742Z,100834.09
2022-08-20T02:18:14.781Z,100835.91
2022-08-20T02:20:44.409Z,100827.06
2022-08-20T02:23:13.133Z,100826.25
2022-08-20T02:25:43.108Z,100832.63
2022-08-20T02:28:13.995Z,100830.69
2022-08-20T02:30:46.922Z,100828.84
2022-08-20T02:33:17.380Z,100822.44
2022-08-20T02:35:47.979Z,100828.59
2022-08-20T02:38:16.644Z,100834.84
2022-08-20T02:40:45.887Z,100842.81
2022-08-20T02:43:14.443Z,100832.25
2022-08-20T02:45:44.653Z,100832.44
2022-08-20T02:48:20.558Z,100837.03
2022-08-20T02:50:51.369Z,100832.63
2022-08-20T02:53:19.195Z,100831.63
2022-08-20T02:55:47.084Z,100837.22
2022-08-20T02:58:15.872Z,100829.16
2022-08-20T03:00:45.144Z,100834.44
2022-08-20T03:03:15.244Z,100837.22
2022-08-20T03:05:45.213Z,100839.91
2022-08-20T03:08:14.621Z,100838.19
2022-08-20T03:10:44.142Z,100836.28
2022-08-20T03:13:15.666Z,100846.25
2022-08-20T03:15:47.991Z,100838.19
2022-08-20T03:18:16.976Z,100846.16
2022-08-20T03:20:46.366Z,100845.31
2022-08-20T03:23:20.926Z,100848.78
2022-08-20T03:25:49.593Z,100847.03
2022-08-20T03:28:18.503Z,100848.94
2022-08-20T03:30:50.293Z,100855.31
2022-08-20T03:33:20.184Z,100856.28
2022-08-20T03:35:48.807Z,100857.22
2022-08-20T03:38:19.975Z,100862.72
2022-08-20T03:41:00.740Z,100860.88
2022-08-20T03:43:28.978Z,100860.50
2022-08-20T03:45:58.167Z,100865.72
2022-08-20T03:48:28.228Z,100872.06
2022-08-20T03:50:57.573Z,100864.34
2022-08-20T03:53:25.428Z,100863.69
2022-08-20T03:55:59.313Z,100874.34
2022-08-20T03:58:35.767Z,100870.88
2022-08-20T04:01:07.677Z,100867.13
2022-08-20T04:03:58.592Z,100872.59
2022-08-20T04:06:26.626Z,100866.28
2022-08-20T04:08:54.622Z,100868.00
2022-08-20T04:11:23.821Z,100868.00
2022-08-20T04:13:51.729Z,100872.81
2022-08-20T04:16:22.364Z,100868.38
2022-08-20T04:18:57.244Z,100869.16
2022-08-20T04:21:32.668Z,100868.56
2022-08-20T04:24:02.249Z,100871.25
2022-08-20T04:26:30.162Z,100882.69
2022-08-20T04:28:58.113Z,100886.16
2022-08-20T04:31:32.641Z,100878.16
2022-08-20T04:34:01.361Z,100888.06
2022-08-20T04:36:29.442Z,100883.94
2022-08-20T04:38:57.526Z,100882.56
2022-08-20T04:41:25.582Z,100895.34
2022-08-20T04:43:55.268Z,100891.09
2022-08-20T04:46:25.474Z,100901.88
2022-08-20T04:48:54.919Z,100894.69
2022-08-20T04:51:24.535Z,100900.34
2022-08-20T04:53:54.268Z,100909.50
2022-08-20T04:56:25.914Z,100907.28
2022-08-20T04:58:55.518Z,100905.03
2022-08-20T05:01:24.226Z,100904.94
2022-08-20T05:03:54.817Z,100903.91
2022-08-20T05:06:26.146Z,100900.50
2022-08-20T05:08:54.401Z,100903.63
2022-08-20T05:11:33.831Z,100897.03
2022-08-20T05:14:07.974Z,100894.09
2022-08-20T05:16:38.995Z,100885.94
2022-08-20T05:19:08.567Z,100890.16
2022-08-20T05:21:38.337Z,100884.03
2022-08-20T05:24:06.487Z,100879.31
2022-08-20T05:26:34.542Z,100883.66
2022-08-20T05:29:05.159Z,100892.13
2022-08-20T05:31:34.597Z,100886.75
2022-08-20T05:34:03.088Z,100890.22
2022-08-20T05:36:31.944Z,100897.91
2022-08-20T05:39:01.302Z,100899.06
2022-08-20T05:41:30.562Z,100915.03
2022-08-20T05:44:01.817Z,100911.38
2022-08-20T05:46:31.256Z,100922.16
2022-08-20T05:49:00.223Z,100930.63
2022-08-20T05:51:28.930Z,100931.16
2022-08-20T05:53:59.728Z,100938.19
2022-08-20T05:56:31.154Z,100950.44
2022-08-20T05:59:00.826Z,100947.50
2022-08-20T06:01:28.930Z,100943.34
2022-08-20T06:04:14.052Z,100935.59
2022-08-20T06:06:46.150Z,100941.69
2022-08-20T06:09:15.277Z,100940.72
2022-08-20T06:11:44.588Z,100936.03
2022-08-20T06:14:12.409Z,100932.44
2022-08-20T06:16:57.364Z,100937.84
2022-08-20T06:19:27.223Z,100935.16
2022-08-20T06:22:01.101Z,100939.25
2022-08-20T06:24:29.213Z,100936.75
2022-08-20T06:27:00.125Z,100938.09
2022-08-20T06:29:28.774Z,100940.88
2022-08-20T06:31:57.333Z,100937.91
2022-08-20T06:34:28.312Z,100939.44
2022-08-20T06:36:59.520Z,100932.69
2022-08-20T06:39:29.568Z,100942.22
2022-08-20T06:41:59.559Z,100932.53
2022-08-20T06:44:28.454Z,100937.63
2022-08-20T06:47:00.856Z,100931.22
2022-08-20T06:49:28.805Z,100933.59
2022-08-20T06:52:03.417Z,100940.69
2022-08-20T06:54:32.829Z,100935.41
2022-08-20T06:57:02.415Z,100931.38
2022-08-20T06:59:31.162Z,100924.06
2022-08-20T07:01:59.006Z,100931.94
2022-08-20T07:04:28.425Z,100932.81
2022-08-20T07:06:57.686Z,100924.34
2022-08-20T07:09:26.907Z,100922.72
2022-08-20T07:11:54.997Z,100925.03
2022-08-20T07:14:27.066Z,100921.47
2022-08-20T07:16:55.125Z,100925.16
2022-08-20T07:19:23.364Z,100936.38
2022-08-20T07:21:51.213Z,100934.28
2022-08-20T07:24:19.350Z,100929.66
2022-08-20T07:26:47.196Z,100946.19
2022-08-20T07:29:15.012Z,100941.53
2022-08-20T07:32:01.993Z,100950.44
2022-08-20T07:34:31.436Z,100953.44
2022-08-20T07:37:00.875Z,100950.69
2022-08-20T07:39:31.118Z,100960.41
2022-08-20T07:42:03.954Z,100958.03
2022-08-20T07:44:32.003Z,100956.31
2022-08-20T07:47:01.344Z,100953.69
2022-08-20T07:49:30.835Z,100964.56
2022-08-20T07:51:58.723Z,100962.00
2022-08-20T07:54:27.993Z,100960.34
2022-08-20T07:57:02.482Z,100961.09
2022-08-20T07:59:30.718Z,100953.50
2022-08-20T08:01:59.217Z,100968.28
2022-08-20T08:04:28.405Z,100969.22
2022-08-20T08:07:00.014Z,100976.06
2022-08-20T08:09:28.867Z,100972.56
2022-08-20T08:12:00.859Z,100979.00
2022-08-20T08:14:31.930Z,100985.84
2022-08-20T08:17:03.441Z,100989.34
2022-08-20T08:19:38.744Z,100984.84
2022-08-20T08:22:11.507Z,100991.34
2022-08-20T08:24:39.919Z,100991.81
2022-08-20T08:27:08.841Z,100994.50
2022-08-20T08:29:37.109Z,100996.50
2022-08-20T08:32:06.575Z,100995.66
2022-08-20T08:34:37.154Z,100990.63
2022-08-20T08:37:05.554Z,100997.53
2022-08-20T08:39:35.065Z,101000.44
2022-08-20T08:42:05.154Z,100996.50
2022-08-20T08:44:38.598Z,101001.81
2022-08-20T08:47:13.745Z,101005.88
2022-08-20T08:49:42.937Z,101009.16
2022-08-20T08:52:14.633Z,101008.38
2022-08-20T08:54:48.824Z,101014.41
2022-08-20T08:57:17.420Z,101007.16
2022-08-20T09:00:03.872Z,101016.16
2022-08-20T09:02:35.357Z,101012.25
2022-08-20T09:05:15.237Z,101006.19
2022-08-20T09:07:46.337Z,101012.03
2022-08-20T09:10:14.236Z,101016.88
2022-08-20T09:12:56.132Z,101013.78
2022-08-20T09:15:24.084Z,101010.41
2022-08-20T09:17:52.026Z,101018.69
2022-08-20T09:20:26.932Z,101018.25
2022-08-20T09:22:55.268Z,101020.19
2022-08-20T09:25:23.610Z,101017.28
2022-08-20T09:27:51.546Z,101029.34
2022-08-20T09:30:19.871Z,101025.91
2022-08-20T09:32:48.291Z,101020.41
2022-08-20T09:35:16.485Z,101023.94
2022-08-20T09:37:46.986Z,101023.63
2022-08-20T09:40:21.361Z,101021.13
2022-08-20T09:42:50.595Z,101017.47
2022-08-20T09:45:19.468Z,101011.09
2022-08-20T09:47:56.694Z,101017.03
2022-08-20T09:50:32.944Z,101005.47
2022-08-20T09:53:04.363Z,101002.00
2022-08-20T09:55:37.194Z,101003.97
2022-08-20T09:58:10.731Z,101002.34
2022-08-20T10:00:38.753Z,101005.59
2022-08-20T10:03:06.693Z,100997.09
2022-08-20T10:05:34.621Z,100997.16
2022-08-20T10:08:06.837Z,101002.59
2022-08-20T10:10:34.794Z,101000.47
2022-08-20T10:13:03.014Z,101006.53
2022-08-20T10:15:33.177Z,101005.69
2022-08-20T10:18:05.761Z,101001.78
2022-08-20T10:20:34.035Z,101001.28
2022-08-20T10:23:05.968Z,101009.00
2022-08-20T10:25:38.671Z,101006.63
2022-08-20T10:28:09.038Z,101001.34
2022-08-20T10:30:40.402Z,101013.56
2022-08-20T10:33:31.174Z,101010.38
2022-08-20T10:36:00.148Z,101003.13
2022-08-20T10:38:29.624Z,100999.63
2022-08-20T10:40:57.802Z,101002.50
2022-08-20T10:43:25.700Z,101001.38
2022-08-20T10:45:53.680Z,101002.72
2022-08-20T10:48:21.847Z,101007.72
2022-08-20T10:50:49.989Z,101015.53
2022-08-20T10:53:18.511Z,101017.88
2022-08-20T10:55:54.158Z,101026.88
2022-08-20T10:58:23.769Z,101037.38
2022-08-20T11:00:52.596Z,101032.81
2022-08-20T11:03:34.774Z,101032.38
2022-08-20T11:06:06.155Z,101034.91
2022-08-20T11:08:36.117Z,101036.03
2022-08-20T11:11:13.301Z,101048.59
2022-08-20T11:16:55.052Z,101045.91
2022-08-20T11:19:25.650Z,101047.53
2022-08-20T11:21:53.654Z,101048.63
2022-08-20T11:24:21.601Z,101044.53
2022-08-20T11:26:53.280Z,101050.50
2022-08-20T11:29:22.575Z,101061.19
2022-08-20T11:31:50.620Z,101055.97
2022-08-20T11:34:18.593Z,101050.78
2022-08-20T11:36:47.722Z,101048.53
2022-08-20T11:39:15.978Z,101046.63
2022-08-20T11:41:43.920Z,101046.19
2022-08-20T11:44:20.938Z,101058.09
2022-08-20T11:46:49.817Z,101057.91
2022-08-20T11:49:20.065Z,101051.22
2022-08-20T11:51:49.722Z,101052.19
2022-08-20T11:54:18.619Z,101052.16
2022-08-20T11:56:47.723Z,101054.81
2022-08-20T11:59:18.318Z,101058.56
2022-08-20T12:01:46.639Z,101060.00
2022-08-20T12:04:33.505Z,101056.59
2022-08-20T12:07:10.280Z,101053.22
2022-08-20T12:09:41.993Z,101053.97
2022-08-20T12:12:19.587Z,101055.69
2022-08-20T12:14:49.196Z,101055.78
2022-08-20T12:17:19.867Z,101049.03
2022-08-20T12:19:48.522Z,101056.84
2022-08-20T12:22:23.165Z,101043.84
2022-08-20T12:24:53.510Z,101051.31
2022-08-20T12:27:24.451Z,101051.31
2022-08-20T12:29:55.478Z,101048.88
2022-08-20T12:32:24.903Z,101041.97
2022-08-20T12:34:55.967Z,101051.59
2022-08-20T12:37:26.693Z,101046.44
2022-08-20T12:39:58.476Z,101036.41
2022-08-20T12:42:27.577Z,101039.25
2022-08-20T12:44:56.894Z,101046.84
2022-08-20T12:47:27.225Z,101044.66
2022-08-20T12:49:57.923Z,101048.34
2022-08-20T12:52:26.867Z,101044.66
2022-08-20T12:54:55.689Z,101044.97
2022-08-20T12:57:26.354Z,101040.78
2022-08-20T12:59:54.644Z,101040.13
2022-08-20T13:02:24.263Z,101040.28
2022-08-20T13:04:52.231Z,101026.06
2022-08-20T13:07:20.226Z,101022.97
2022-08-20T13:09:48.021Z,101025.56
2022-08-20T13:12:15.893Z,101027.59
2022-08-20T13:14:44.423Z,101021.72
2022-08-20T13:17:12.203Z,101016.78
2022-08-20T13:19:41.922Z,101010.63
2022-08-20T13:22:09.992Z,101002.75
2022-08-20T13:24:38.808Z,101019.75
2022-08-20T13:27:08.547Z,101007.41
2022-08-20T13:29:37.468Z,101017.28
2022-08-20T13:32:06.509Z,101009.88
2022-08-20T13:34:34.452Z,101007.78
2022-08-20T13:37:03.844Z,101007.78
2022-08-20T13:39:31.681Z,101005.06
2022-08-20T13:41:59.472Z,101007.78
2022-08-20T13:44:30.362Z,100997.34
2022-08-20T13:47:01.184Z,100999.78
2022-08-20T13:49:29.088Z,101003.47
2022-08-20T13:52:03.331Z,100996.56
2022-08-20T13:54:31.276Z,100996.53
2022-08-20T13:57:05.730Z,100999.59
2022-08-20T13:59:36.914Z,100991.28
2022-08-20T14:02:07.305Z,100992.19
2022-08-20T14:04:36.020Z,100991.63
2022-08-20T14:07:12.664Z,100994.69
2022-08-20T14:09:40.964Z,100994.50
2022-08-20T14:12:10.403Z,101002.44
2022-08-20T14:14:38.476Z,101000.88
2022-08-20T14:17:25.532Z,101000.41
2022-08-20T14:20:00.274Z,100993.59
2022-08-20T14:22:30.724Z,100990.88
2022-08-20T14:24:59.578Z,101007.41
2022-08-20T14:27:31.172Z,101001.50
2022-08-20T14:29:59.854Z,101008.28
2022-08-20T14:32:28.306Z,101012.38
2022-08-20T14:34:58.993Z,101000.50
2022-08-20T14:37:29.741Z,101001.97
2022-08-20T14:40:00.421Z,101000.97
2022-08-20T14:42:29.845Z,100991.56
2022-08-20T14:44:58.981Z,101002.97
2022-08-20T14:47:28.895Z,100996.59
2022-08-20T14:50:02.145Z,101003.22
2022-08-20T14:52:30.431Z,101000.94
2022-08-20T14:54:59.731Z,101002.50
2022-08-20T14:57:27.669Z,100990.88
2022-08-20T14:59:55.652Z,100995.72
2022-08-20T15:02:23.470Z,100996.38
2022-08-20T15:04:54.233Z,100986.13
2022-08-20T15:07:26.392Z,100994.09
2022-08-20T15:09:54.925Z,100985.69
2022-08-20T15:12:24.854Z,100994.31
2022-08-20T15:14:52.794Z,100982.69
2022-08-20T15:17:22.507Z,100989.44
2022-08-20T15:19:50.640Z,100988.63
2022-08-20T15:22:19.710Z,100989.53
2022-08-20T15:24:48.572Z,100984.97
2022-08-20T15:27:22.620Z,100978.94
2022-08-20T15:29:53.576Z,100986.06
2022-08-20T15:32:22.519Z,100985.31
2022-08-20T15:34:51.164Z,100990.16
2022-08-20T15:37:21.279Z,100989.06
2022-08-20T15:39:50.727Z,100980.75
2022-08-20T15:42:19.370Z,100985.88
2022-08-20T15:44:48.213Z,100989.06
2022-08-20T15:47:25.108Z,100988.25
2022-08-20T15:49:57.625Z,100987.09
2022-08-20T15:52:31.969Z,100990.03
2022-08-20T15:55:02.056Z,100985.69
2022-08-20T15:57:45.156Z,100987.97
2022-08-20T16:00:16.569Z,100990.59
2022-08-20T16:03:14.231Z,100988.59
2022-08-20T16:05:46.501Z,100989.38
2022-08-20T16:08:32.536Z,100987.44
2022-08-20T16:11:08.633Z,100997.03
2022-08-20T16:13:41.236Z,100992.31
2022-08-20T16:16:19.179Z,100995.34
2022-08-20T16:18:52.328Z,101003.56
2022-08-20T16:21:27.797Z,100998.66
2022-08-20T16:23:56.601Z,100995.91
2022-08-20T16:26:36.503Z,101004.69
2022-08-20T16:29:11.347Z,101000.13
2022-08-20T16:31:46.228Z,101000.47
2022-08-20T16:34:33.520Z,101003.22
2022-08-20T16:37:11.526Z,101007.84
2022-08-20T16:39:47.583Z,101011.69
2022-08-20T16:42:21.840Z,101003.78
2022-08-20T16:44:51.696Z,101006.84
2022-08-20T16:47:22.754Z,101007.59
2022-08-20T16:49:58.911Z,101000.81
2022-08-20T16:52:26.887Z,101014.06
2022-08-20T16:54:54.771Z,101016.78
2022-08-20T16:57:22.802Z,101010.13
2022-08-20T16:59:59.029Z,101014.63
2022-08-20T17:02:27.580Z,101008.09
2022-08-20T17:04:59.333Z,101003.47
2022-08-20T17:07:31.037Z,101007.66
2022-08-20T17:10:13.085Z,101008.72
2022-08-20T17:12:40.953Z,101004.97
2022-08-20T17:15:19.143Z,101007.81
2022-08-20T17:17:47.291Z,101016.00
2022-08-20T17:20:20.464Z,101011.69
2022-08-20T17:22:51.812Z,101019.50
2022-08-20T17:25:29.579Z,101012.09
2022-08-20T17:28:00.364Z,101020.16
2022-08-20T17:30:36.698Z,101018.91
2022-08-20T17:33:07.906Z,101016.19
2022-08-20T17:35:41.705Z,101024.31
2022-08-20T17:38:25.757Z,101030.47
2022-08-20T17:41:00.413Z,101024.00
2022-08-20T17:43:30.622Z,101027.59
2022-08-20T17:46:01.882Z,101027.69
2022-08-20T17:48:36.307Z,101038.66
2022-08-20T17:51:19.396Z,101040.75
2022-08-20T17:53:51.773Z,101039.75
2022-08-20T17:56:23.428Z,101045.88
2022-08-20T17:58:56.510Z,101047.09
2022-08-20T18:01:26.265Z,101050.56
2022-08-20T18:03:54.410Z,101050.56
2022-08-20T18:06:31.093Z,101059.03
2022-08-20T18:09:04.429Z,101058.69
2022-08-20T18:11:38.146Z,101066.31
2022-08-20T18:14:20.204Z,101060.59
2022-08-20T18:17:05.330Z,101063.66
2022-08-20T18:20:01.282Z,101062.84
2022-08-20T18:22:33.278Z,101072.47
2022-08-20T18:25:07.528Z,101064.47
2022-08-20T18:27:40.957Z,101078.88
2022-08-20T18:30:19.175Z,101076.28
2022-08-20T18:32:49.865Z,101079.09
2022-08-20T18:35:23.366Z,101078.16
2022-08-20T18:37:52.691Z,101080.25
2022-08-20T18:40:33.255Z,101084.97
2022-08-20T18:43:13.534Z,101076.34
2022-08-20T18:45:42.477Z,101083.81
2022-08-20T18:48:21.919Z,101080.44
2022-08-20T18:50:55.097Z,101081.97
2022-08-20T18:53:33.889Z,101078.50
2022-08-20T18:56:05.967Z,101085.84
2022-08-20T18:58:37.966Z,101088.44
2022-08-20T19:01:12.667Z,101089.56
2022-08-20T19:03:45.745Z,101089.97
2022-08-20T19:06:36.826Z,101095.50
2022-08-20T19:09:14.994Z,101102.09
2022-08-20T19:11:58.904Z,101102.97
2022-08-20T19:15:02.515Z,101102.97
2022-08-20T19:17:49.513Z,101099.28
2022-08-20T19:20:23.585Z,101102.97
2022-08-20T19:22:52.785Z,101117.47
2022-08-20T19:25:31.154Z,101108.69
2022-08-20T19:28:00.791Z,101104.69
2022-08-20T19:30:35.942Z,101105.13
2022-08-20T19:33:05.293Z,101100.34
2022-08-20T19:35:33.249Z,101103.91
2022-08-20T19:38:02.374Z,101103.56
2022-08-20T19:40:39.193Z,101106.47
2022-08-20T19:43:13.113Z,101107.22
2022-08-20T19:45:45.310Z,101123.44
2022-08-20T19:48:27.823Z,101125.59
2022-08-20T19:51:06.364Z,101122.75
2022-08-20T19:53:36.844Z,101121.44
2022-08-20T19:56:10.557Z,101123.03
2022-08-20T19:58:39.007Z,101122.28
2022-08-20T20:01:12.041Z,101125.53
2022-08-20T20:03:40.115Z,101120.13
2022-08-20T20:06:17.082Z,101120.53
2022-08-20T20:08:51.134Z,101122.66
2022-08-20T20:11:28.127Z,101116.28
2022-08-20T20:14:01.002Z,101121.88
2022-08-20T20:16:31.710Z,101130.84
2022-08-20T20:19:23.075Z,101127.00
2022-08-20T20:21:50.402Z,101127.94
2022-08-20T20:24:25.027Z,101131.63
2022-08-20T20:26:54.922Z,101127.69
2022-08-20T20:29:27.029Z,101124.53
2022-08-20T20:31:57.237Z,101127.50
2022-08-20T20:34:28.792Z,101131.09
2022-08-20T20:37:06.782Z,101133.22
2022-08-20T20:39:37.779Z,101144.22
2022-08-20T20:42:11.041Z,101143.44
2022-08-20T20:44:40.585Z,101149.13
2022-08-20T20:47:19.310Z,101146.91
2022-08-20T20:49:52.431Z,101142.97
2022-08-20T20:52:23.029Z,101148.31
2022-08-20T20:54:52.949Z,101147.44
2022-08-20T20:57:38.739Z,101144.72
2022-08-20T21:00:11.391Z,101147.13
2022-08-20T21:02:39.769Z,101150.88
2022-08-20T21:05:08.297Z,101143.06
2022-08-20T21:07:44.922Z,101143.94
2022-08-20T21:10:19.233Z,101153.34
2022-08-20T21:12:52.659Z,101155.44
2022-08-20T21:15:22.803Z,101152.19
2022-08-20T21:17:50.713Z,101153.22
2022-08-20T21:20:19.348Z,101157.81
2022-08-20T21:22:47.264Z,101159.75
2022-08-20T21:25:15.201Z,101166.44
2022-08-20T21:27:46.381Z,101161.25
2022-08-20T21:30:16.797Z,101159.78
2022-08-20T21:32:44.712Z,101165.44
2022-08-20T21:35:13.346Z,101170.09
2022-08-20T21:37:41.304Z,101177.41
2022-08-20T21:40:12.129Z,101177.84
2022-08-20T21:42:41.455Z,101181.59
2022-08-20T21:45:18.681Z,101180.81
2022-08-20T21:47:48.873Z,101176.56
2022-08-20T21:50:18.624Z,101175.09
2022-08-20T21:52:59.122Z,101170.84
2022-08-20T21:55:39.593Z,101171.16
2022-08-20T21:58:08.313Z,101173.25
2022-08-20T22:00:53.465Z,101170.81
2022-08-20T22:03:22.321Z,101171.09
2022-08-20T22:05:51.952Z,101170.38
2022-08-20T22:08:20.826Z,101173.25
2022-08-20T22:10:54.881Z,101175.31
2022-08-20T22:13:24.034Z,101174.59
2022-08-20T22:15:54.113Z,101166.97
2022-08-20T22:18:21.969Z,101172.69
2022-08-20T22:20:50.314Z,101164.88
2022-08-20T22:23:18.228Z,101167.72
2022-08-20T22:25:46.191Z,101166.13
2022-08-20T22:28:14.220Z,101168.09
2022-08-20T22:30:42.768Z,101156.63
2022-08-20T22:33:14.615Z,101155.94
2022-08-20T22:35:46.002Z,101161.63
2022-08-20T22:38:14.069Z,101161.81
2022-08-20T22:40:42.386Z,101160.22
2022-08-20T22:43:10.580Z,101153.28
2022-08-20T22:45:38.830Z,101160.56
2022-08-20T22:48:08.116Z,101156.38
2022-08-20T22:50:38.806Z,101157.44
2022-08-20T22:53:08.704Z,101172.84
2022-08-20T22:55:36.870Z,101164.13
2022-08-20T22:58:05.145Z,101166.91
2022-08-20T23:00:33.460Z,101164.56
2022-08-20T23:03:03.136Z,101156.63
2022-08-20T23:05:34.453Z,101151.56
2022-08-20T23:08:04.503Z,101157.13
2022-08-20T23:10:34.325Z,101152.78
2022-08-20T23:13:02.222Z,101154.72
2022-08-20T23:15:32.224Z,101151.28
2022-08-20T23:18:05.526Z,101151.41
2022-08-20T23:20:33.529Z,101147.28
2022-08-20T23:23:02.906Z,101152.84
2022-08-20T23:25:30.910Z,101145.13
2022-08-20T23:28:04.354Z,101139.81
2022-08-20T23:30:32.866Z,101144.88
2022-08-20T23:33:01.568Z,101141.34
2022-08-20T23:35:32.018Z,101144.06
2022-08-20T23:38:01.341Z,101141.69
2022-08-20T23:40:32.654Z,101149.25
2022-08-20T23:43:00.653Z,101149.25
2022-08-20T23:45:30.627Z,101154.06
2022-08-20T23:47:58.495Z,101146.94
2022-08-20T23:50:28.738Z,101145.31
2022-08-20T23:52:57.865Z,101134.78
2022-08-20T23:55:26.234Z,101137.69
2022-08-20T23:57:55.483Z,101130.06
